Latest Weather Observations for Thevenard Island

IDW60801

Issued at 10:03 pm WST Monday 29 November 2021 (issued every 10 minutes, with the page automatically refreshed every 10 minutes)

About weather observations | Map of weather stations | Latest weather observations for WA | Other Formats
Station Details ID: 005084 Name: THEVENARD ISLAND Lat: -21.46 Lon: 115.02 Height: 5.0 m
Data from the previous 72 hours. | See also: Recent months at Thevenard Island
Date/Time
WST
Temp
°C
App
Temp
°C
Dew
Point
°C
Rel
Hum
%
Delta-T
°C
Wind Press
QNH
hPa
Press
MSL
hPa
Rain since
9am
mm
Dir  Spd
km/h
Gust
km/h
Spd
kts
Gust
kts
29/10:00pm 27.3 - - - - W 19 26 10 14 1010.5 1010.5 0.0
29/09:30pm 27.4 - - - - W 17 28 9 15 1010.1 1010.1 0.0
29/09:00pm 27.5 - - - - WNW 20 28 11 15 1009.8 1009.8 0.0
29/08:30pm 27.8 - - - - WNW 20 28 11 15 1009.6 1009.6 0.0
29/08:00pm 28.0 - - - - WNW 22 30 12 16 1009.1 1009.1 0.0
29/07:30pm 28.1 - - - - NW 20 28 11 15 1008.9 1008.9 0.0
29/07:00pm 28.4 - - - - NW 20 28 11 15 1008.5 1008.5 0.0
29/06:30pm 29.0 - - - - NW 20 28 11 15 1008.3 1008.3 0.0
29/06:00pm 30.0 - - - - WNW 22 28 12 15 1007.8 1007.8 0.0
29/05:30pm 29.9 - - - - WNW 24 32 13 17 1007.4 1007.4 0.0
29/05:00pm 31.7 - - - - WNW 22 33 12 18 1007.3 1007.3 0.0
29/04:30pm 31.2 - - - - NW 24 32 13 17 1007.1 1007.1 0.0
29/04:00pm 31.8 - - - - NW 26 32 14 17 1007.2 1007.2 0.0
29/03:30pm 31.8 - - - - NW 26 33 14 18 1007.5 1007.5 0.0
29/03:00pm 32.0 - - - - NW 24 32 13 17 1007.8 1007.8 0.0
29/02:30pm 31.6 - - - - NNW 24 30 13 16 1008.1 1008.1 0.0
29/02:00pm 31.3 - - - - NNW 22 28 12 15 1008.3 1008.3 0.0
29/01:30pm 30.9 - - - - NNW 19 24 10 13 1008.4 1008.4 0.0
29/01:00pm 31.1 - - - - NNW 19 24 10 13 1008.7 1008.7 0.0
29/12:30pm 31.4 - - - - N 17 22 9 12 1009.0 1009.0 0.0
29/12:00pm 31.5 - - - - NNW 17 22 9 12 1009.2 1009.2 0.0
29/11:30am 31.1 - - - - N 15 20 8 11 1009.5 1009.5 0.0
29/11:00am 30.8 - - - - NNW 15 20 8 11 1009.7 1009.7 0.0
29/10:30am 29.9 - - - - NNW 19 20 10 11 1009.8 1009.8 0.0
29/10:00am 31.3 - - - - ENE 7 11 4 6 1009.6 1009.6 0.0
29/09:30am 31.6 - - - - SSW 11 15 6 8 1009.8 1009.8 0.0
29/09:00am 30.9 - - - - SW 15 19 8 10 1009.7 1009.7 0.0
29/08:30am 30.8 - - - - WSW 13 19 7 10 1009.8 1009.8 0.0
29/08:00am 29.5 - - - - SW 13 15 7 8 1009.8 1009.8 0.0
29/07:30am 29.8 - - - - WSW 13 19 7 10 1009.4 1009.4 0.0
29/07:00am 29.0 - - - - WSW 13 17 7 9 1009.3 1009.3 0.0
29/06:30am 26.4 - - - - WSW 11 13 6 7 1009.1 1009.1 0.0
29/06:00am 24.7 - - - - W 9 11 5 6 1009.0 1009.0 0.0
29/05:30am 23.8 - - - - W 15 17 8 9 1008.6 1008.6 0.0
29/05:00am 24.4 - - - - W 15 19 8 10 1008.5 1008.5 0.0
29/04:30am 24.8 - - - - SW 13 15 7 8 1008.3 1008.3 0.0
29/04:00am 24.6 - - - - SW 13 13 7 7 1008.0 1008.0 0.0
29/03:30am 25.4 - - - - SW 9 11 5 6 1007.8 1007.8 0.0
29/03:00am 26.3 - - - - CALM 0 6 0 3 1007.9 1007.9 0.0
29/02:30am 26.5 - - - - SW 11 13 6 7 1007.8 1007.8 0.0
29/02:00am 26.6 - - - - SW 11 17 6 9 1008.0 1008.0 0.0
29/01:30am 27.2 - - - - SSW 11 13 6 7 1008.3 1008.3 0.0
29/01:00am 26.9 - - - - SW 11 13 6 7 1008.6 1008.6 0.0
29/12:30am 27.0 - - - - SSW 11 13 6 7 1009.1 1009.1 0.0
29/12:00am 27.1 - - - - SSW 11 13 6 7 1009.5 1009.5 0.0
 
Date/Time
WST
Temp
°C
App
Temp
°C
Dew
Point
°C
Rel
Hum
%
Delta-T
°C
Wind Press
QNH
hPa
Press
MSL
hPa
Rain since
9am
mm
Dir  Spd
km/h
Gust
km/h
Spd
kts
Gust
kts
28/11:30pm 27.5 - - - - SSW 13 20 7 11 1009.9 1009.9 0.0
28/11:00pm 27.3 - - - - SSW 11 15 6 8 1009.8 1009.8 0.0
28/10:30pm 27.3 - - - - SSW 9 15 5 8 1010.0 1010.0 0.0
28/10:00pm 27.7 - - - - SSW 15 20 8 11 1009.8 1009.8 0.0
28/09:30pm 27.5 - - - - SSW 17 20 9 11 1009.6 1009.6 0.0
28/09:00pm 27.4 - - - - SSW 15 20 8 11 1009.2 1009.2 0.0
28/08:30pm 27.2 - - - - SSW 9 13 5 7 1009.0 1009.0 0.0
28/08:00pm 27.3 - - - - NW 9 11 5 6 1008.4 1008.4 0.0
28/07:30pm 27.9 - - - - NW 11 13 6 7 1008.0 1008.0 0.0
28/07:00pm 28.6 - - - - NW 15 20 8 11 1007.6 1007.6 0.0
28/06:30pm 29.6 - - - - NW 17 20 9 11 1007.1 1007.1 0.0
28/06:00pm 30.3 - - - - NNW 19 24 10 13 1006.8 1006.8 0.0
28/05:30pm 30.7 - - - - NNW 19 26 10 14 1006.6 1006.6 0.0
28/05:00pm 31.8 - - - - NNW 20 26 11 14 1006.4 1006.4 0.0
28/04:30pm 32.5 - - - - NNW 24 30 13 16 1006.4 1006.4 0.0
28/04:00pm 33.8 - - - - NW 24 33 13 18 1006.6 1006.6 0.0
28/03:30pm 34.8 - - - - NNW 22 28 12 15 1006.9 1006.9 0.0
28/03:00pm 35.1 - - - - NNW 20 26 11 14 1007.2 1007.2 0.0
28/02:30pm 35.4 - - - - NNW 20 26 11 14 1007.6 1007.6 0.0
28/02:00pm 35.0 - - - - N 20 26 11 14 1007.9 1007.9 0.0
28/01:30pm 36.2 - - - - N 19 24 10 13 1008.4 1008.4 0.0
28/01:00pm 36.0 - - - - N 19 24 10 13 1008.6 1008.6 0.0
28/12:30pm 33.7 - - - - N 19 24 10 13 1008.9 1008.9 0.0
28/12:00pm 35.4 - - - - NNE 19 26 10 14 1009.2 1009.2 0.0
28/11:30am 35.8 - - - - NNE 15 19 8 10 1009.7 1009.7 0.0
28/11:00am 35.7 - - - - NE 15 20 8 11 1009.9 1009.9 0.0
28/10:30am 34.6 - - - - NE 13 17 7 9 1010.1 1010.1 0.0
28/10:00am 32.4 - - - - ENE 15 20 8 11 1010.3 1010.3 0.0
28/09:30am 31.7 - - - - ESE 15 19 8 10 1010.2 1010.2 0.0
28/09:00am 30.9 - - - - ESE 17 20 9 11 1010.7 1010.7 0.0
28/08:30am 29.7 - - - - E 20 26 11 14 1010.9 1010.9 0.0
28/08:00am 29.8 - - - - E 17 24 9 13 1011.1 1011.1 0.0
28/07:30am 28.8 - - - - E 15 24 8 13 1010.9 1010.9 0.0
28/07:00am 27.7 - - - - SE 11 15 6 8 1010.1 1010.1 0.0
28/06:30am 26.3 - - - - SSE 13 17 7 9 1009.7 1009.7 0.0
28/06:00am 25.8 - - - - S 17 20 9 11 1009.0 1009.0 0.0
28/05:30am 24.9 - - - - SSW 9 11 5 6 1008.7 1008.7 0.0
28/05:00am 24.8 - - - - SW 7 9 4 5 1008.8 1008.8 0.0
28/04:30am 24.9 - - - - SW 7 9 4 5 1008.7 1008.7 0.0
28/04:00am 25.1 - - - - SW 9 11 5 6 1008.7 1008.7 0.0
28/03:30am 24.8 - - - - SW 7 11 4 6 1008.5 1008.5 0.0
28/03:00am 25.2 - - - - SW 9 11 5 6 1008.5 1008.5 0.0
28/02:30am 25.2 - - - - SW 9 11 5 6 1008.6 1008.6 0.0
28/02:00am 25.5 - - - - SW 13 15 7 8 1008.7 1008.7 0.0
28/01:30am 25.6 - - - - SW 11 13 6 7 1009.0 1009.0 0.0
28/01:00am 26.0 - - - - SW 11 15 6 8 1009.4 1009.4 0.0
28/12:30am 26.5 - - - - SW 17 20 9 11 1009.6 1009.6 0.0
28/12:00am 26.5 - - - - SW 19 24 10 13 1009.9 1009.9 0.0
 
Date/Time
WST
Temp
°C
App
Temp
°C
Dew
Point
°C
Rel
Hum
%
Delta-T
°C
Wind Press
QNH
hPa
Press
MSL
hPa
Rain since
9am
mm
Dir  Spd
km/h
Gust
km/h
Spd
kts
Gust
kts
27/11:30pm 26.6 - - - - SW 20 26 11 14 1010.2 1010.2 0.0
27/11:00pm 26.8 - - - - SW 19 26 10 14 1010.5 1010.5 0.0
27/10:30pm 26.3 - - - - W 13 19 7 10 1010.3 1010.3 0.0
27/10:00pm 25.8 - - - - W 11 15 6 8 1010.3 1010.3 0.0
27/09:30pm 25.3 - - - - WNW 11 13 6 7 1010.1 1010.1 0.0
27/09:00pm 25.9 - - - - WNW 13 15 7 8 1009.9 1009.9 0.0
27/08:30pm 26.6 - - - - NW 15 15 8 8 1009.7 1009.7 0.0
27/08:00pm 27.2 - - - - NW 13 17 7 9 1009.5 1009.5 0.0
27/07:30pm 27.8 - - - - NW 15 17 8 9 1009.3 1009.3 0.0
27/07:00pm 28.3 - - - - NW 17 20 9 11 1008.8 1008.8 0.0
27/06:30pm 29.3 - - - - NW 17 24 9 13 1008.2 1008.2 0.0
27/06:00pm 30.2 - - - - NW 20 26 11 14 1007.9 1007.9 0.0
27/05:30pm 30.8 - - - - NW 20 30 11 16 1007.4 1007.4 0.0
27/05:00pm 31.6 - - - - NW 20 28 11 15 1007.2 1007.2 0.0
27/04:30pm 31.8 - - - - NNW 22 28 12 15 1007.2 1007.2 0.0
27/04:00pm 32.1 - - - - NNW 22 30 12 16 1007.4 1007.4 0.0
27/03:30pm 31.8 - - - - NW 24 32 13 17 1007.5 1007.5 0.0
27/03:00pm 32.1 - - - - NW 24 32 13 17 1007.7 1007.7 0.0
27/02:30pm 32.8 - - - - NNW 22 30 12 16 1008.1 1008.1 0.0
27/02:00pm 33.6 - - - - NNW 20 28 11 15 1008.4 1008.4 0.0
27/01:30pm 33.1 - - - - NNW 20 28 11 15 1008.7 1008.7 0.0
27/01:00pm 33.1 - - - - NNW 19 22 10 12 1009.0 1009.0 0.0
27/12:30pm 31.7 - - - - N 15 19 8 10 1009.5 1009.5 0.0
27/12:00pm 30.9 - - - - N 15 20 8 11 1009.8 1009.8 0.0
27/11:30am 30.5 - - - - N 15 19 8 10 1010.2 1010.2 0.0
27/11:00am 30.3 - - - - N 17 19 9 10 1010.4 1010.4 0.0
27/10:30am 30.5 - - - - SE 13 19 7 10 1010.5 1010.5 0.0
27/10:00am 30.2 - - - - SE 13 17 7 9 1010.9 1010.9 0.0
27/09:30am 29.7 - - - - SE 13 15 7 8 1011.1 1011.1 0.0
27/09:00am 29.7 - - - - SE 11 15 6 8 1011.3 1011.3 0.0
27/08:30am 29.2 - - - - SE 11 13 6 7 1011.4 1011.4 0.0
27/08:00am 28.1 - - - - W 9 11 5 6 1011.3 1011.3 0.0
27/07:30am 27.2 - - - - W 7 9 4 5 1011.2 1011.2 0.0
27/07:00am 25.9 - - - - WNW 7 9 4 5 1011.0 1011.0 0.0
27/06:30am 23.9 - - - - WNW 7 9 4 5 1010.8 1010.8 0.0
27/06:00am 22.6 - - - - WNW 7 9 4 5 1010.4 1010.4 0.0
27/05:30am 22.5 - - - - WNW 9 11 5 6 1010.0 1010.0 0.0
27/05:00am 22.9 - - - - NW 9 11 5 6 1009.9 1009.9 0.0
27/04:30am 22.7 - - - - NW 9 11 5 6 1009.8 1009.8 0.0
27/04:00am 23.3 - - - - NW 9 11 5 6 1009.6 1009.6 0.0
27/03:30am 22.8 - - - - WNW 13 13 7 7 1009.3 1009.3 0.0
27/03:00am 22.7 - - - - W 13 15 7 8 1009.3 1009.3 0.0
27/02:30am 22.9 - - - - WNW 15 17 8 9 1009.4 1009.4 0.0
27/02:00am 22.9 - - - - NW 11 13 6 7 1009.6 1009.6 0.0
27/01:30am 23.2 - - - - NW 11 11 6 6 1009.9 1009.9 0.0
27/01:00am 23.6 - - - - NNW 11 13 6 7 1010.2 1010.2 0.0
27/12:30am 24.2 - - - - N 9 11 5 6 1010.5 1010.5 0.0
27/12:00am 24.6 - - - - N 11 13 6 7 1010.8 1010.8 0.0
 
Date/Time
WST
Temp
°C
App
Temp
°C
Dew
Point
°C
Rel
Hum
%
Delta-T
°C
Wind Press
QNH
hPa
Press
MSL
hPa
Rain since
9am
mm
Dir  Spd
km/h
Gust
km/h
Spd
kts
Gust
kts
26/11:30pm 24.3 - - - - SSW 6 7 3 4 1011.2 1011.2 0.0
26/11:00pm 24.1 - - - - CALM 0 4 0 2 1011.4 1011.4 0.0
26/10:30pm 24.8 - - - - SSW 7 9 4 5 1011.5 1011.5 0.0

Other formats

Comma delimited format used in spreadsheet applications
http://www.bom.gov.au/fwo/IDW60801/IDW60801.94303.axf

JavaScript Object Notation format (JSON) in row-major order
http://www.bom.gov.au/fwo/IDW60801/IDW60801.94303.json

Data quality

Most of these data are generated automatically and are frequently updated. Quality checks on data are not normally performed. It is possible for incorrect values to appear. Refer to information at About Latest Weather Observations and please check the disclaimer before using these data.